sensor_id;sensor_type;location;lat;lon;timestamp;P1;durP1;ratioP1;P2;durP2;ratioP2
72569;SDS011;60594;50.204;8.844;2023-04-21T11:16:23;21.63;;;10.48;;
72569;SDS011;60594;50.204;8.844;2023-04-21T11:18:50;20.70;;;10.82;;
72569;SDS011;60594;50.204;8.844;2023-04-21T11:21:17;18.92;;;9.73;;
72569;SDS011;60594;50.204;8.844;2023-04-21T11:23:47;21.42;;;11.55;;
72569;SDS011;60594;50.204;8.844;2023-04-21T11:26:15;19.33;;;10.68;;
72569;SDS011;60594;50.204;8.844;2023-04-21T11:28:42;18.10;;;10.55;;
72569;SDS011;60594;50.204;8.844;2023-04-21T11:31:13;17.80;;;9.50;;
72569;SDS011;60594;50.204;8.844;2023-04-21T11:33:39;18.65;;;9.23;;
72569;SDS011;60594;50.204;8.844;2023-04-21T11:36:14;16.50;;;9.70;;
72569;SDS011;60594;50.204;8.844;2023-04-21T11:38:41;17.17;;;9.23;;
72569;SDS011;60594;50.204;8.844;2023-04-21T11:41:08;17.75;;;9.73;;
72569;SDS011;60594;50.204;8.844;2023-04-21T11:43:35;16.98;;;8.75;;
72569;SDS011;60594;50.204;8.844;2023-04-21T11:48:58;15.65;;;8.93;;
72569;SDS011;60594;50.204;8.844;2023-04-21T11:51:31;17.17;;;9.60;;
72569;SDS011;60594;50.204;8.844;2023-04-21T11:54:04;15.85;;;8.68;;
72569;SDS011;60594;50.204;8.844;2023-04-21T11:56:39;16.13;;;8.70;;
72569;SDS011;60594;50.204;8.844;2023-04-21T11:59:10;12.13;;;7.18;;
72569;SDS011;60594;50.204;8.844;2023-04-21T12:01:49;19.65;;;10.50;;
72569;SDS011;60594;50.204;8.844;2023-04-21T12:04:18;17.58;;;10.02;;
72569;SDS011;60594;50.204;8.844;2023-04-21T12:06:55;16.98;;;9.40;;
72569;SDS011;60594;50.204;8.844;2023-04-21T12:09:24;19.38;;;9.65;;
72569;SDS011;60594;50.204;8.844;2023-04-21T12:11:52;18.23;;;9.45;;
72569;SDS011;60594;50.204;8.844;2023-04-21T12:14:20;20.90;;;10.38;;
72569;SDS011;60594;50.204;8.844;2023-04-21T12:16:49;17.35;;;9.02;;
72569;SDS011;60594;50.204;8.844;2023-04-21T12:19:38;15.75;;;9.38;;
72569;SDS011;60594;50.204;8.844;2023-04-21T12:22:07;15.13;;;10.18;;
72569;SDS011;60594;50.204;8.844;2023-04-21T12:24:34;16.38;;;8.90;;
72569;SDS011;60594;50.204;8.844;2023-04-21T12:27:02;13.77;;;8.73;;
72569;SDS011;60594;50.204;8.844;2023-04-21T12:29:29;15.07;;;8.32;;
72569;SDS011;60594;50.204;8.844;2023-04-21T12:31:55;17.13;;;8.73;;
72569;SDS011;60594;50.204;8.844;2023-04-21T12:34:22;17.80;;;9.75;;
72569;SDS011;60594;50.204;8.844;2023-04-21T12:36:48;15.60;;;9.10;;
72569;SDS011;60594;50.204;8.844;2023-04-21T12:39:15;16.35;;;8.75;;
72569;SDS011;60594;50.204;8.844;2023-04-21T12:41:44;18.02;;;10.05;;
72569;SDS011;60594;50.204;8.844;2023-04-21T12:44:12;14.50;;;8.52;;
72569;SDS011;60594;50.204;8.844;2023-04-21T12:46:39;12.40;;;8.07;;
72569;SDS011;60594;50.204;8.844;2023-04-21T12:49:06;16.08;;;8.80;;
72569;SDS011;60594;50.204;8.844;2023-04-21T12:51:34;14.68;;;8.70;;
72569;SDS011;60594;50.204;8.844;2023-04-21T12:54:00;13.88;;;8.35;;
72569;SDS011;60594;50.204;8.844;2023-04-21T12:56:27;14.93;;;8.70;;
72569;SDS011;60594;50.204;8.844;2023-04-21T12:58:54;13.57;;;7.90;;
72569;SDS011;60594;50.204;8.844;2023-04-21T13:01:21;13.82;;;8.32;;
72569;SDS011;60594;50.204;8.844;2023-04-21T13:03:48;14.55;;;9.27;;
72569;SDS011;60594;50.204;8.844;2023-04-21T13:06:14;13.27;;;8.25;;
72569;SDS011;60594;50.204;8.844;2023-04-21T13:08:41;13.45;;;7.85;;
72569;SDS011;60594;50.204;8.844;2023-04-21T13:11:07;12.00;;;6.90;;
72569;SDS011;60594;50.204;8.844;2023-04-21T13:13:34;11.75;;;7.05;;
72569;SDS011;60594;50.204;8.844;2023-04-21T13:16:01;12.20;;;6.25;;
72569;SDS011;60594;50.204;8.844;2023-04-21T13:18:27;9.50;;;5.68;;
72569;SDS011;60594;50.204;8.844;2023-04-21T13:20:54;10.82;;;6.53;;
72569;SDS011;60594;50.204;8.844;2023-04-21T13:23:20;10.32;;;6.50;;
72569;SDS011;60594;50.204;8.844;2023-04-21T13:25:47;10.15;;;6.18;;
72569;SDS011;60594;50.204;8.844;2023-04-21T13:28:16;10.52;;;6.60;;
72569;SDS011;60594;50.204;8.844;2023-04-21T13:30:42;11.18;;;6.80;;
72569;SDS011;60594;50.204;8.844;2023-04-21T13:33:09;10.27;;;7.10;;
72569;SDS011;60594;50.204;8.844;2023-04-21T13:35:36;11.48;;;6.90;;
72569;SDS011;60594;50.204;8.844;2023-04-21T13:38:03;12.10;;;7.00;;
72569;SDS011;60594;50.204;8.844;2023-04-21T13:40:31;11.70;;;7.03;;
72569;SDS011;60594;50.204;8.844;2023-04-21T13:42:57;10.68;;;6.65;;
72569;SDS011;60594;50.204;8.844;2023-04-21T13:45:24;11.93;;;7.15;;
72569;SDS011;60594;50.204;8.844;2023-04-21T13:47:51;12.10;;;7.38;;
72569;SDS011;60594;50.204;8.844;2023-04-21T13:50:19;13.18;;;7.68;;
72569;SDS011;60594;50.204;8.844;2023-04-21T13:52:46;11.00;;;7.15;;
72569;SDS011;60594;50.204;8.844;2023-04-21T13:55:12;11.30;;;7.10;;
72569;SDS011;60594;50.204;8.844;2023-04-21T13:57:39;12.52;;;6.93;;
72569;SDS011;60594;50.204;8.844;2023-04-21T14:00:05;9.73;;;6.70;;
72569;SDS011;60594;50.204;8.844;2023-04-21T14:02:36;11.35;;;6.10;;
72569;SDS011;60594;50.204;8.844;2023-04-21T14:05:03;11.50;;;7.07;;
72569;SDS011;60594;50.204;8.844;2023-04-21T14:07:30;11.25;;;6.32;;
72569;SDS011;60594;50.204;8.844;2023-04-21T14:09:57;13.10;;;6.82;;
72569;SDS011;60594;50.204;8.844;2023-04-21T14:12:23;9.27;;;6.22;;
72569;SDS011;60594;50.204;8.844;2023-04-21T14:14:52;11.15;;;6.72;;
72569;SDS011;60594;50.204;8.844;2023-04-21T14:17:19;11.90;;;7.75;;
72569;SDS011;60594;50.204;8.844;2023-04-21T14:19:45;11.13;;;6.65;;
72569;SDS011;60594;50.204;8.844;2023-04-21T14:22:12;12.57;;;7.53;;
72569;SDS011;60594;50.204;8.844;2023-04-21T14:24:38;10.00;;;6.50;;
72569;SDS011;60594;50.204;8.844;2023-04-21T14:27:05;11.73;;;8.18;;
72569;SDS011;60594;50.204;8.844;2023-04-21T14:29:32;10.27;;;6.63;;
72569;SDS011;60594;50.204;8.844;2023-04-21T14:31:58;11.40;;;6.28;;
72569;SDS011;60594;50.204;8.844;2023-04-21T14:34:24;10.57;;;6.28;;
72569;SDS011;60594;50.204;8.844;2023-04-21T14:36:51;9.93;;;6.10;;
72569;SDS011;60594;50.204;8.844;2023-04-21T14:39:18;10.20;;;6.22;;
72569;SDS011;60594;50.204;8.844;2023-04-21T14:41:45;12.48;;;6.72;;
72569;SDS011;60594;50.204;8.844;2023-04-21T14:44:11;11.27;;;6.35;;
72569;SDS011;60594;50.204;8.844;2023-04-21T14:46:38;11.30;;;5.97;;
72569;SDS011;60594;50.204;8.844;2023-04-21T14:49:05;9.85;;;6.35;;
72569;SDS011;60594;50.204;8.844;2023-04-21T14:51:32;10.98;;;6.30;;
72569;SDS011;60594;50.204;8.844;2023-04-21T14:53:58;10.93;;;6.47;;
72569;SDS011;60594;50.204;8.844;2023-04-21T14:56:25;10.00;;;6.32;;
72569;SDS011;60594;50.204;8.844;2023-04-21T14:58:51;12.75;;;7.00;;
72569;SDS011;60594;50.204;8.844;2023-04-21T15:01:18;10.77;;;6.70;;
72569;SDS011;60594;50.204;8.844;2023-04-21T15:03:44;10.18;;;6.53;;
72569;SDS011;60594;50.204;8.844;2023-04-21T15:06:11;9.52;;;5.93;;
72569;SDS011;60594;50.204;8.844;2023-04-21T15:08:37;9.30;;;5.35;;
72569;SDS011;60594;50.204;8.844;2023-04-21T15:11:05;9.85;;;6.35;;
72569;SDS011;60594;50.204;8.844;2023-04-21T15:13:31;9.07;;;6.00;;
72569;SDS011;60594;50.204;8.844;2023-04-21T15:15:58;9.15;;;5.93;;
72569;SDS011;60594;50.204;8.844;2023-04-21T15:18:25;10.73;;;6.30;;
72569;SDS011;60594;50.204;8.844;2023-04-21T15:20:51;9.43;;;5.90;;
72569;SDS011;60594;50.204;8.844;2023-04-21T15:23:18;10.55;;;5.95;;
72569;SDS011;60594;50.204;8.844;2023-04-21T15:25:45;9.43;;;5.82;;
72569;SDS011;60594;50.204;8.844;2023-04-21T15:28:11;9.50;;;5.43;;
72569;SDS011;60594;50.204;8.844;2023-04-21T15:30:38;10.68;;;5.88;;
72569;SDS011;60594;50.204;8.844;2023-04-21T15:33:04;10.02;;;6.47;;
72569;SDS011;60594;50.204;8.844;2023-04-21T15:35:31;10.77;;;6.45;;
72569;SDS011;60594;50.204;8.844;2023-04-21T15:37:57;9.25;;;5.78;;
72569;SDS011;60594;50.204;8.844;2023-04-21T15:40:24;9.35;;;5.82;;
72569;SDS011;60594;50.204;8.844;2023-04-21T15:42:50;9.30;;;5.00;;
72569;SDS011;60594;50.204;8.844;2023-04-21T15:45:17;9.80;;;5.78;;
72569;SDS011;60594;50.204;8.844;2023-04-21T15:47:44;10.80;;;5.65;;
72569;SDS011;60594;50.204;8.844;2023-04-21T15:50:11;8.77;;;5.35;;
72569;SDS011;60594;50.204;8.844;2023-04-21T15:52:37;8.40;;;5.07;;
72569;SDS011;60594;50.204;8.844;2023-04-21T15:55:09;8.43;;;5.25;;
72569;SDS011;60594;50.204;8.844;2023-04-21T15:57:37;9.88;;;5.43;;
72569;SDS011;60594;50.204;8.844;2023-04-21T16:00:04;9.18;;;5.50;;
72569;SDS011;60594;50.204;8.844;2023-04-21T16:02:31;9.35;;;5.32;;
72569;SDS011;60594;50.204;8.844;2023-04-21T16:04:58;9.43;;;5.60;;
72569;SDS011;60594;50.204;8.844;2023-04-21T16:07:25;8.90;;;5.75;;
72569;SDS011;60594;50.204;8.844;2023-04-21T16:09:51;7.93;;;5.20;;
72569;SDS011;60594;50.204;8.844;2023-04-21T16:12:18;7.13;;;4.70;;
72569;SDS011;60594;50.204;8.844;2023-04-21T16:14:44;9.57;;;5.10;;
72569;SDS011;60594;50.204;8.844;2023-04-21T16:17:11;7.82;;;5.20;;
72569;SDS011;60594;50.204;8.844;2023-04-21T16:19:38;7.45;;;5.05;;
72569;SDS011;60594;50.204;8.844;2023-04-21T16:22:07;8.45;;;5.50;;
72569;SDS011;60594;50.204;8.844;2023-04-21T16:24:34;9.00;;;5.47;;
72569;SDS011;60594;50.204;8.844;2023-04-21T16:27:01;8.80;;;5.60;;
72569;SDS011;60594;50.204;8.844;2023-04-21T16:29:28;9.65;;;4.95;;
72569;SDS011;60594;50.204;8.844;2023-04-21T16:31:54;7.72;;;4.97;;
72569;SDS011;60594;50.204;8.844;2023-04-21T16:34:21;9.10;;;5.03;;
72569;SDS011;60594;50.204;8.844;2023-04-21T16:36:47;7.78;;;4.78;;
72569;SDS011;60594;50.204;8.844;2023-04-21T16:39:14;8.60;;;5.10;;
72569;SDS011;60594;50.204;8.844;2023-04-21T16:41:40;7.68;;;4.68;;
72569;SDS011;60594;50.204;8.844;2023-04-21T16:44:07;7.63;;;4.55;;
72569;SDS011;60594;50.204;8.844;2023-04-21T16:46:34;8.13;;;5.00;;
72569;SDS011;60594;50.204;8.844;2023-04-21T16:49:01;7.15;;;4.40;;
72569;SDS011;60594;50.204;8.844;2023-04-21T16:51:27;7.88;;;4.68;;
72569;SDS011;60594;50.204;8.844;2023-04-21T16:53:54;6.90;;;4.05;;
72569;SDS011;60594;50.204;8.844;2023-04-21T16:56:22;7.13;;;4.53;;
72569;SDS011;60594;50.204;8.844;2023-04-21T17:01:15;6.85;;;4.43;;
72569;SDS011;60594;50.204;8.844;2023-04-21T17:03:42;8.18;;;4.75;;
72569;SDS011;60594;50.204;8.844;2023-04-21T17:06:09;6.78;;;4.38;;
72569;SDS011;60594;50.204;8.844;2023-04-21T17:08:36;10.48;;;5.13;;
72569;SDS011;60594;50.204;8.844;2023-04-21T17:11:02;6.65;;;3.90;;
72569;SDS011;60594;50.204;8.844;2023-04-21T17:13:29;7.15;;;3.60;;
72569;SDS011;60594;50.204;8.844;2023-04-21T17:15:56;5.50;;;3.30;;
72569;SDS011;60594;50.204;8.844;2023-04-21T17:18:23;7.10;;;3.72;;
72569;SDS011;60594;50.204;8.844;2023-04-21T17:20:49;7.43;;;3.90;;
72569;SDS011;60594;50.204;8.844;2023-04-21T17:23:16;7.80;;;5.00;;
72569;SDS011;60594;50.204;8.844;2023-04-21T17:25:43;9.07;;;5.82;;
72569;SDS011;60594;50.204;8.844;2023-04-21T17:28:10;9.25;;;5.82;;
72569;SDS011;60594;50.204;8.844;2023-04-21T17:30:36;9.32;;;5.57;;
72569;SDS011;60594;50.204;8.844;2023-04-21T17:33:03;7.80;;;5.00;;
72569;SDS011;60594;50.204;8.844;2023-04-21T17:35:29;9.30;;;5.80;;
72569;SDS011;60594;50.204;8.844;2023-04-21T17:37:57;8.30;;;5.25;;
72569;SDS011;60594;50.204;8.844;2023-04-21T17:40:24;10.13;;;5.65;;
72569;SDS011;60594;50.204;8.844;2023-04-21T17:42:51;9.32;;;5.68;;
72569;SDS011;60594;50.204;8.844;2023-04-21T17:45:18;9.70;;;6.03;;
72569;SDS011;60594;50.204;8.844;2023-04-21T17:47:45;11.18;;;5.53;;
72569;SDS011;60594;50.204;8.844;2023-04-21T17:50:11;8.48;;;5.68;;
72569;SDS011;60594;50.204;8.844;2023-04-21T17:52:38;10.23;;;6.30;;
72569;SDS011;60594;50.204;8.844;2023-04-21T17:55:05;9.18;;;5.55;;
72569;SDS011;60594;50.204;8.844;2023-04-21T17:57:32;11.43;;;7.03;;
72569;SDS011;60594;50.204;8.844;2023-04-21T17:59:59;10.40;;;6.50;;
72569;SDS011;60594;50.204;8.844;2023-04-21T18:02:26;10.52;;;6.18;;
72569;SDS011;60594;50.204;8.844;2023-04-21T18:04:52;10.57;;;6.20;;
72569;SDS011;60594;50.204;8.844;2023-04-21T18:07:19;11.00;;;6.07;;
72569;SDS011;60594;50.204;8.844;2023-04-21T18:09:46;8.45;;;5.53;;
72569;SDS011;60594;50.204;8.844;2023-04-21T18:14:41;22.50;;;12.05;;
72569;SDS011;60594;50.204;8.844;2023-04-21T18:17:07;7.35;;;4.50;;
72569;SDS011;60594;50.204;8.844;2023-04-21T18:19:34;5.60;;;3.40;;
72569;SDS011;60594;50.204;8.844;2023-04-21T18:22:01;6.32;;;3.83;;
72569;SDS011;60594;50.204;8.844;2023-04-21T18:24:27;5.88;;;3.83;;
72569;SDS011;60594;50.204;8.844;2023-04-21T18:26:54;6.53;;;3.67;;
72569;SDS011;60594;50.204;8.844;2023-04-21T18:29:21;5.40;;;3.30;;
72569;SDS011;60594;50.204;8.844;2023-04-21T18:31:48;6.05;;;3.13;;
72569;SDS011;60594;50.204;8.844;2023-04-21T18:34:14;6.10;;;2.78;;
72569;SDS011;60594;50.204;8.844;2023-04-21T18:36:41;5.35;;;2.65;;
72569;SDS011;60594;50.204;8.844;2023-04-21T18:39:08;4.60;;;2.50;;
72569;SDS011;60594;50.204;8.844;2023-04-21T18:41:36;6.20;;;2.95;;
72569;SDS011;60594;50.204;8.844;2023-04-21T18:44:03;6.72;;;3.42;;
72569;SDS011;60594;50.204;8.844;2023-04-21T18:46:32;5.82;;;2.53;;
72569;SDS011;60594;50.204;8.844;2023-04-21T18:48:59;5.35;;;2.50;;
72569;SDS011;60594;50.204;8.844;2023-04-21T18:51:26;4.43;;;2.22;;
72569;SDS011;60594;50.204;8.844;2023-04-21T18:53:52;4.40;;;2.03;;
72569;SDS011;60594;50.204;8.844;2023-04-21T18:56:19;4.80;;;2.20;;
72569;SDS011;60594;50.204;8.844;2023-04-21T18:58:46;6.10;;;2.28;;
72569;SDS011;60594;50.204;8.844;2023-04-21T19:01:12;4.55;;;2.22;;
72569;SDS011;60594;50.204;8.844;2023-04-21T19:03:39;5.30;;;2.50;;
72569;SDS011;60594;50.204;8.844;2023-04-21T19:06:06;4.45;;;2.40;;
72569;SDS011;60594;50.204;8.844;2023-04-21T19:08:32;4.80;;;2.50;;
72569;SDS011;60594;50.204;8.844;2023-04-21T19:10:59;4.63;;;2.05;;
72569;SDS011;60594;50.204;8.844;2023-04-21T19:13:26;4.63;;;1.90;;
72569;SDS011;60594;50.204;8.844;2023-04-21T19:15:53;3.83;;;2.00;;
72569;SDS011;60594;50.204;8.844;2023-04-21T19:18:20;4.30;;;1.90;;
72569;SDS011;60594;50.204;8.844;2023-04-21T19:20:47;5.03;;;2.08;;
72569;SDS011;60594;50.204;8.844;2023-04-21T19:23:13;5.50;;;2.60;;
72569;SDS011;60594;50.204;8.844;2023-04-21T19:25:40;5.82;;;2.38;;
72569;SDS011;60594;50.204;8.844;2023-04-21T19:28:07;4.47;;;2.00;;
72569;SDS011;60594;50.204;8.844;2023-04-21T19:30:34;4.15;;;2.33;;
72569;SDS011;60594;50.204;8.844;2023-04-21T19:33:00;4.57;;;2.40;;
72569;SDS011;60594;50.204;8.844;2023-04-21T19:35:27;5.00;;;2.50;;
72569;SDS011;60594;50.204;8.844;2023-04-21T19:37:54;4.75;;;2.60;;
72569;SDS011;60594;50.204;8.844;2023-04-21T19:40:21;4.88;;;2.60;;
72569;SDS011;60594;50.204;8.844;2023-04-21T19:42:47;4.80;;;2.47;;
72569;SDS011;60594;50.204;8.844;2023-04-21T19:45:14;4.55;;;2.63;;
72569;SDS011;60594;50.204;8.844;2023-04-21T19:47:41;7.20;;;2.92;;
72569;SDS011;60594;50.204;8.844;2023-04-21T19:50:08;4.82;;;2.38;;
72569;SDS011;60594;50.204;8.844;2023-04-21T19:52:35;4.97;;;2.60;;
72569;SDS011;60594;50.204;8.844;2023-04-21T19:55:02;6.93;;;2.95;;
72569;SDS011;60594;50.204;8.844;2023-04-21T19:57:30;8.23;;;4.95;;
72569;SDS011;60594;50.204;8.844;2023-04-21T19:59:57;11.07;;;6.88;;
72569;SDS011;60594;50.204;8.844;2023-04-21T20:02:23;8.02;;;4.95;;
72569;SDS011;60594;50.204;8.844;2023-04-21T20:04:51;7.55;;;4.40;;
72569;SDS011;60594;50.204;8.844;2023-04-21T20:07:18;7.32;;;3.92;;
72569;SDS011;60594;50.204;8.844;2023-04-21T20:09:45;6.78;;;3.70;;
72569;SDS011;60594;50.204;8.844;2023-04-21T20:12:11;7.07;;;3.45;;
72569;SDS011;60594;50.204;8.844;2023-04-21T20:14:38;6.10;;;3.03;;
72569;SDS011;60594;50.204;8.844;2023-04-21T20:17:04;7.32;;;3.60;;
72569;SDS011;60594;50.204;8.844;2023-04-21T20:19:31;6.97;;;3.67;;
72569;SDS011;60594;50.204;8.844;2023-04-21T20:21:58;7.05;;;3.35;;
72569;SDS011;60594;50.204;8.844;2023-04-21T20:24:25;5.22;;;2.92;;
72569;SDS011;60594;50.204;8.844;2023-04-21T20:26:52;4.97;;;3.03;;
72569;SDS011;60594;50.204;8.844;2023-04-21T20:29:19;9.95;;;4.40;;
72569;SDS011;60594;50.204;8.844;2023-04-21T20:31:46;9.88;;;5.45;;
72569;SDS011;60594;50.204;8.844;2023-04-21T20:34:12;10.68;;;5.18;;
72569;SDS011;60594;50.204;8.844;2023-04-21T20:36:39;6.35;;;3.60;;
72569;SDS011;60594;50.204;8.844;2023-04-21T20:39:06;6.22;;;3.00;;
72569;SDS011;60594;50.204;8.844;2023-04-21T20:41:32;5.28;;;2.50;;
72569;SDS011;60594;50.204;8.844;2023-04-21T20:43:59;4.63;;;2.55;;
72569;SDS011;60594;50.204;8.844;2023-04-21T20:46:27;6.05;;;2.58;;
72569;SDS011;60594;50.204;8.844;2023-04-21T20:48:54;5.90;;;2.65;;
72569;SDS011;60594;50.204;8.844;2023-04-21T20:51:20;5.78;;;2.55;;
72569;SDS011;60594;50.204;8.844;2023-04-21T20:53:47;5.47;;;2.83;;
72569;SDS011;60594;50.204;8.844;2023-04-21T20:56:13;4.93;;;2.80;;
72569;SDS011;60594;50.204;8.844;2023-04-21T20:58:40;5.18;;;3.08;;
72569;SDS011;60594;50.204;8.844;2023-04-21T21:01:07;6.47;;;3.30;;
72569;SDS011;60594;50.204;8.844;2023-04-21T21:03:33;6.07;;;3.95;;
72569;SDS011;60594;50.204;8.844;2023-04-21T21:06:00;6.38;;;3.40;;
72569;SDS011;60594;50.204;8.844;2023-04-21T21:08:27;9.98;;;4.63;;
72569;SDS011;60594;50.204;8.844;2023-04-21T21:10:53;7.07;;;4.10;;
72569;SDS011;60594;50.204;8.844;2023-04-21T21:13:20;7.53;;;4.47;;
72569;SDS011;60594;50.204;8.844;2023-04-21T21:15:46;8.30;;;4.82;;
72569;SDS011;60594;50.204;8.844;2023-04-21T21:18:13;6.47;;;3.55;;
72569;SDS011;60594;50.204;8.844;2023-04-21T21:20:39;6.28;;;3.25;;
72569;SDS011;60594;50.204;8.844;2023-04-21T21:23:06;5.65;;;3.08;;
72569;SDS011;60594;50.204;8.844;2023-04-21T21:25:32;8.15;;;4.18;;
72569;SDS011;60594;50.204;8.844;2023-04-21T21:27:59;7.60;;;3.97;;
72569;SDS011;60594;50.204;8.844;2023-04-21T21:30:26;10.25;;;7.80;;
72569;SDS011;60594;50.204;8.844;2023-04-21T21:32:52;7.18;;;4.50;;
72569;SDS011;60594;50.204;8.844;2023-04-21T21:35:20;5.70;;;3.33;;
72569;SDS011;60594;50.204;8.844;2023-04-21T21:37:47;3.90;;;2.30;;
72569;SDS011;60594;50.204;8.844;2023-04-21T21:40:13;5.30;;;2.35;;
72569;SDS011;60594;50.204;8.844;2023-04-21T21:42:40;5.55;;;3.63;;
72569;SDS011;60594;50.204;8.844;2023-04-21T21:45:07;7.15;;;3.30;;
72569;SDS011;60594;50.204;8.844;2023-04-21T21:47:34;7.70;;;3.50;;
72569;SDS011;60594;50.204;8.844;2023-04-21T21:50:00;7.13;;;3.83;;
72569;SDS011;60594;50.204;8.844;2023-04-21T21:52:28;7.10;;;3.88;;
72569;SDS011;60594;50.204;8.844;2023-04-21T21:54:54;9.30;;;3.92;;
72569;SDS011;60594;50.204;8.844;2023-04-21T21:57:21;5.65;;;2.92;;
72569;SDS011;60594;50.204;8.844;2023-04-21T21:59:47;6.53;;;2.95;;
72569;SDS011;60594;50.204;8.844;2023-04-21T22:02:14;5.57;;;2.80;;
72569;SDS011;60594;50.204;8.844;2023-04-21T22:04:41;5.75;;;2.67;;
72569;SDS011;60594;50.204;8.844;2023-04-21T22:07:08;5.68;;;2.47;;
72569;SDS011;60594;50.204;8.844;2023-04-21T22:09:34;4.65;;;2.50;;
72569;SDS011;60594;50.204;8.844;2023-04-21T22:12:02;4.32;;;2.50;;
72569;SDS011;60594;50.204;8.844;2023-04-21T22:14:29;5.30;;;2.47;;
72569;SDS011;60594;50.204;8.844;2023-04-21T22:16:55;5.68;;;2.67;;
72569;SDS011;60594;50.204;8.844;2023-04-21T22:19:22;4.75;;;2.10;;
72569;SDS011;60594;50.204;8.844;2023-04-21T22:21:49;5.68;;;2.22;;
72569;SDS011;60594;50.204;8.844;2023-04-21T22:24:15;4.68;;;2.33;;
72569;SDS011;60594;50.204;8.844;2023-04-21T22:26:42;7.22;;;2.70;;
72569;SDS011;60594;50.204;8.844;2023-04-21T22:29:09;5.95;;;2.55;;
72569;SDS011;60594;50.204;8.844;2023-04-21T22:31:36;5.78;;;2.95;;
72569;SDS011;60594;50.204;8.844;2023-04-21T22:34:03;5.05;;;2.67;;
72569;SDS011;60594;50.204;8.844;2023-04-21T22:36:30;5.13;;;2.60;;
72569;SDS011;60594;50.204;8.844;2023-04-21T22:38:57;5.28;;;2.67;;
72569;SDS011;60594;50.204;8.844;2023-04-21T22:41:24;4.85;;;2.72;;
72569;SDS011;60594;50.204;8.844;2023-04-21T22:43:52;4.95;;;2.38;;
72569;SDS011;60594;50.204;8.844;2023-04-21T22:46:18;6.95;;;2.70;;
72569;SDS011;60594;50.204;8.844;2023-04-21T22:48:45;6.07;;;2.72;;
72569;SDS011;60594;50.204;8.844;2023-04-21T22:51:12;5.35;;;2.60;;
72569;SDS011;60594;50.204;8.844;2023-04-21T22:53:45;5.75;;;2.55;;
72569;SDS011;60594;50.204;8.844;2023-04-21T22:56:12;7.35;;;2.72;;
72569;SDS011;60594;50.204;8.844;2023-04-21T22:58:39;6.28;;;2.88;;
72569;SDS011;60594;50.204;8.844;2023-04-21T23:01:06;5.40;;;2.60;;
72569;SDS011;60594;50.204;8.844;2023-04-21T23:03:33;5.20;;;2.42;;
72569;SDS011;60594;50.204;8.844;2023-04-21T23:05:59;4.53;;;2.28;;
72569;SDS011;60594;50.204;8.844;2023-04-21T23:08:26;5.40;;;2.70;;
72569;SDS011;60594;50.204;8.844;2023-04-21T23:10:53;5.03;;;2.75;;
72569;SDS011;60594;50.204;8.844;2023-04-21T23:13:19;5.63;;;2.58;;
72569;SDS011;60594;50.204;8.844;2023-04-21T23:15:46;5.97;;;2.70;;
72569;SDS011;60594;50.204;8.844;2023-04-21T23:18:12;4.15;;;2.40;;
72569;SDS011;60594;50.204;8.844;2023-04-21T23:20:39;6.07;;;2.72;;
72569;SDS011;60594;50.204;8.844;2023-04-21T23:23:06;5.03;;;2.67;;
72569;SDS011;60594;50.204;8.844;2023-04-21T23:25:32;5.00;;;2.65;;
72569;SDS011;60594;50.204;8.844;2023-04-21T23:27:59;4.53;;;2.35;;
72569;SDS011;60594;50.204;8.844;2023-04-21T23:30:26;4.80;;;2.40;;
72569;SDS011;60594;50.204;8.844;2023-04-21T23:32:52;5.28;;;2.97;;
72569;SDS011;60594;50.204;8.844;2023-04-21T23:35:19;5.55;;;2.45;;
72569;SDS011;60594;50.204;8.844;2023-04-21T23:37:45;4.63;;;2.47;;
72569;SDS011;60594;50.204;8.844;2023-04-21T23:40:12;5.40;;;2.60;;
72569;SDS011;60594;50.204;8.844;2023-04-21T23:42:39;5.43;;;2.67;;
72569;SDS011;60594;50.204;8.844;2023-04-21T23:45:06;5.00;;;2.63;;
72569;SDS011;60594;50.204;8.844;2023-04-21T23:47:33;5.20;;;2.70;;
72569;SDS011;60594;50.204;8.844;2023-04-21T23:49:59;5.10;;;2.58;;
72569;SDS011;60594;50.204;8.844;2023-04-21T23:52:25;4.78;;;2.30;;
72569;SDS011;60594;50.204;8.844;2023-04-21T23:54:52;5.07;;;3.03;;
72569;SDS011;60594;50.204;8.844;2023-04-21T23:57:18;6.82;;;2.60;;
72569;SDS011;60594;50.204;8.844;2023-04-21T23:59:45;5.25;;;2.90;;
